Time;durP1;ratioP1;P1;durP2;ratioP2;P2;SDS_P1;SDS_P2;PMS_P1;PMS_P2;Temp;Humidity;BMP_temperature;BMP_pressure;BME280_temperature;BME280_humidity;BME280_pressure;Samples;Min_cycle;Max_cycle;Signal;HPM_P1;HPM_P2
2022/09/14 00:01:31;;;;;;;4.77;1.63;;;18.70;64.60;;;21.57;47.92;100712.31;5050386;28;20666;-57
2022/09/14 00:04:02;;;;;;;3.60;1.50;;;18.70;64.40;;;21.57;48.31;100714.97;5051483;28;20236;-56
2022/09/14 00:06:31;;;;;;;3.80;1.70;;;18.70;64.30;;;21.52;48.38;100714.91;5051364;28;20201;-55
2022/09/14 00:09:00;;;;;;;3.57;1.63;;;18.70;64.20;;;21.49;48.19;100711.91;5051583;28;20199;-57
2022/09/14 00:11:31;;;;;;;7.73;2.00;;;18.70;64.40;;;21.44;48.13;100703.81;5051008;28;20647;-56
2022/09/14 00:14:00;;;;;;;4.07;2.10;;;18.70;64.60;;;21.40;48.53;100708.84;5051319;28;20190;-58
2022/09/14 00:16:32;;;;;;;6.27;1.90;;;18.60;64.70;;;21.37;48.83;100697.81;5051334;28;20201;-56
2022/09/14 00:19:04;;;;;;;4.00;1.60;;;18.60;64.90;;;21.36;48.36;100704.22;5051283;28;20611;-55
2022/09/14 00:21:34;;;;;;;4.00;1.73;;;18.60;65.00;;;21.34;48.90;100701.00;5050856;28;20206;-56
2022/09/14 00:24:02;;;;;;;3.50;1.77;;;18.50;65.10;;;21.31;49.04;100699.63;5051196;28;20687;-54
2022/09/14 00:26:31;;;;;;;5.20;1.70;;;18.50;65.10;;;21.26;48.48;100691.50;5051136;28;20251;-55
2022/09/14 00:29:03;;;;;;;2.87;1.40;;;18.50;65.10;;;21.21;48.62;100699.47;5051450;28;20728;-57
2022/09/14 00:31:34;;;;;;;4.73;1.70;;;18.40;65.20;;;21.15;48.65;100689.75;5051238;28;20631;-57
2022/09/14 00:34:04;;;;;;;2.80;1.50;;;18.40;65.30;;;21.12;49.11;100689.41;5051734;28;20654;-56
2022/09/14 00:36:37;;;;;;;3.40;1.70;;;18.30;65.60;;;21.13;49.30;100693.72;5051127;28;20190;-57
2022/09/14 00:39:06;;;;;;;4.33;1.70;;;18.40;65.90;;;21.12;49.09;100690.22;5051113;28;20193;-55
2022/09/14 00:41:36;;;;;;;3.67;1.90;;;18.30;65.90;;;;;;5050755;28;20602;-55
2022/09/14 00:44:27;;;;;;;4.67;1.70;;;18.30;66.00;;;21.05;49.47;100688.75;5051091;28;20605;-55
2022/09/14 00:46:59;;;;;;;3.33;1.63;;;18.30;66.00;;;21.02;49.67;100683.84;5051035;28;20193;-56
2022/09/14 00:49:34;;;;;;;2.97;1.97;;;18.20;65.90;;;20.97;49.64;100687.25;5050944;28;20190;-55
2022/09/14 00:52:09;;;;;;;2.43;1.50;;;18.20;66.10;;;20.93;49.50;100681.59;5050605;28;20555;-58
2022/09/14 00:54:41;;;;;;;6.97;1.87;;;18.20;66.10;;;20.88;49.15;100678.84;5050943;28;20243;-56
2022/09/14 00:57:10;;;;;;;2.77;1.80;;;18.10;66.10;;;20.87;49.69;100681.78;5051170;28;20193;-56
2022/09/14 00:59:41;;;;;;;2.37;1.53;;;18.10;66.40;;;20.83;49.70;100680.63;5051283;28;20252;-54
2022/09/14 01:02:13;;;;;;;3.03;1.50;;;18.10;66.50;;;20.81;49.92;100682.72;5050561;28;20263;-54
2022/09/14 01:04:42;;;;;;;4.17;1.77;;;18.10;66.60;;;20.78;50.00;100683.19;5050541;28;20208;-57
2022/09/14 01:07:27;;;;;;;2.73;1.50;;;18.00;66.60;;;20.67;50.29;100690.28;5050632;28;20728;-56
2022/09/14 01:10:11;;;;;;;3.33;1.60;;;18.00;66.60;;;20.61;50.07;100699.25;5051141;28;20649;-55
2022/09/14 01:12:54;;;;;;;4.27;1.43;;;17.90;66.80;;;20.58;50.21;100693.56;5050318;28;20213;-56
2022/09/14 01:15:30;;;;;;;4.23;1.50;;;17.90;67.00;;;20.59;50.50;100690.66;5054011;28;20174;-58
2022/09/14 01:18:08;;;;;;;6.30;1.70;;;17.80;67.30;;;20.57;50.24;100691.94;5054752;28;20263;-57
2022/09/14 01:20:42;;;;;;;3.70;1.70;;;17.80;67.50;;;20.56;50.72;100675.06;5054376;28;20228;-59
2022/09/14 01:23:23;;;;;;;2.90;1.37;;;17.80;67.80;;;20.55;50.95;100672.66;5054610;28;20220;-56
2022/09/14 01:26:38;;;;;;;6.00;2.13;;;17.80;68.50;;;20.51;51.41;100672.34;5054657;28;20190;-56
2022/09/14 01:29:14;;;;;;;3.93;1.60;;;17.80;68.60;;;20.57;50.90;100670.53;5054596;28;20205;-54
2022/09/14 01:31:51;;;;;;;3.73;1.30;;;17.80;68.40;;;20.58;51.12;100662.28;5054305;28;20170;-56
2022/09/14 01:34:30;;;;;;;3.10;1.50;;;17.80;68.50;;;20.59;51.25;100663.09;5054440;28;20177;-56
2022/09/14 01:37:05;;;;;;;7.30;1.80;;;17.80;68.40;;;20.58;51.07;100667.66;5054415;28;20177;-57
2022/09/14 01:39:36;;;;;;;6.27;1.50;;;17.80;68.40;;;20.58;51.21;100678.34;5054320;28;20205;-54
2022/09/14 01:42:05;;;;;;;4.77;1.70;;;17.80;68.40;;;20.58;51.21;100666.81;5053848;28;20213;-56
2022/09/14 01:44:41;;;;;;;6.13;1.60;;;17.80;68.50;;;20.53;51.13;100672.09;5054076;28;20205;-55
2022/09/14 01:47:15;;;;;;;2.70;1.50;;;17.80;68.40;;;20.51;51.18;100675.00;5054155;28;20587;-58
2022/09/14 01:49:51;;;;;;;3.27;1.87;;;17.80;68.50;;;20.51;51.25;100677.69;5054242;28;20182;-55
2022/09/14 01:52:24;;;;;;;3.40;1.80;;;17.70;68.80;;;20.50;51.41;100668.03;5054062;28;20202;-58
2022/09/14 01:55:00;;;;;;;2.53;1.40;;;17.70;68.80;;;20.50;51.09;100670.72;5054357;28;20244;-57
2022/09/14 01:57:35;;;;;;;4.80;1.80;;;17.70;68.80;;;20.48;51.53;100667.47;5054053;28;20178;-56
2022/09/14 02:00:10;;;;;;;6.00;1.73;;;17.70;68.80;;;20.44;50.77;100670.88;5053980;28;20178;-57
2022/09/14 02:02:43;;;;;;;8.20;2.33;;;17.70;68.70;;;20.40;51.29;100667.03;5053428;28;20221;-57
2022/09/14 02:05:18;;;;;;;6.50;2.03;;;17.60;68.50;;;20.34;51.42;100665.31;5053984;28;20213;-56
2022/09/14 02:07:46;;;;;;;5.33;1.80;;;17.60;68.80;;;20.31;51.27;100671.97;5053909;28;20210;-57
2022/09/14 02:10:16;;;;;;;5.30;2.30;;;17.60;68.90;;;20.29;51.50;100662.56;5053886;28;20194;-56
2022/09/14 02:12:44;;;;;;;3.00;1.73;;;17.50;69.10;;;20.26;51.29;100669.19;5053756;28;20267;-57
2022/09/14 02:15:15;;;;;;;4.47;1.90;;;17.50;69.20;;;20.23;51.45;100665.13;5054368;28;20658;-56
2022/09/14 02:17:43;;;;;;;4.53;2.00;;;17.40;69.50;;;20.23;52.09;100665.13;5053721;28;20247;-57
2022/09/14 02:20:19;;;;;;;3.73;1.80;;;17.40;69.90;;;20.24;52.16;100658.75;5053542;28;20197;-56
2022/09/14 02:22:47;;;;;;;2.40;1.30;;;17.40;70.30;;;20.31;52.28;100661.28;5053498;28;20768;-57
2022/09/14 02:25:14;;;;;;;3.80;1.80;;;17.50;70.50;;;20.40;52.19;100664.34;5052537;28;20217;-54
2022/09/14 02:27:42;;;;;;;3.50;1.80;;;17.60;70.60;;;20.50;51.95;100659.19;5053424;28;20221;-58
2022/09/14 02:30:10;;;;;;;3.53;2.10;;;17.70;70.10;;;20.54;51.77;100665.69;5053395;28;20240;-55
2022/09/14 02:32:52;;;;;;;4.53;2.30;;;17.70;69.60;;;20.51;51.46;100660.81;5052768;28;20697;-57
2022/09/14 02:35:30;;;;;;;4.27;2.03;;;17.70;69.30;;;20.46;51.19;100648.19;5053184;28;20221;-58
2022/09/14 02:38:11;;;;;;;4.93;2.20;;;17.70;69.30;;;20.42;51.24;100649.69;5053276;28;20646;-57
2022/09/14 02:40:50;;;;;;;6.37;2.23;;;17.70;69.30;;;20.38;51.21;100645.06;5053025;28;20166;-58
2022/09/14 02:43:32;;;;;;;3.53;2.00;;;17.60;69.10;;;20.33;51.96;100631.59;5053201;28;20217;-53
2022/09/14 02:46:12;;;;;;;4.63;2.20;;;17.60;69.50;;;20.32;51.44;100630.00;5053224;28;20244;-55
2022/09/14 02:48:51;;;;;;;3.27;2.30;;;17.60;69.60;;;20.29;51.28;100619.78;5053231;28;20235;-56
2022/09/14 02:51:29;;;;;;;3.90;1.67;;;17.60;69.50;;;20.26;51.60;100615.72;5052701;28;20592;-56
2022/09/14 02:54:06;;;;;;;7.23;2.87;;;17.50;69.80;;;20.28;52.20;100618.19;5053034;28;20178;-55
2022/09/14 02:56:36;;;;;;;4.23;2.20;;;17.50;69.90;;;20.30;52.11;100614.19;5052938;28;20185;-53
2022/09/14 02:59:04;;;;;;;3.50;2.07;;;17.50;70.00;;;20.32;52.22;100625.47;5052682;28;20248;-58
2022/09/14 03:01:31;;;;;;;4.37;1.87;;;17.50;70.00;;;20.34;52.16;100622.56;5051964;28;20248;-55
2022/09/14 03:04:00;;;;;;;4.43;2.00;;;17.50;70.00;;;20.35;51.69;100629.53;5052842;28;20284;-55
2022/09/14 03:06:28;;;;;;;4.00;2.50;;;17.50;70.00;;;20.32;52.06;100619.31;5057538;28;20199;-55
2022/09/14 03:08:55;;;;;;;4.13;1.90;;;17.50;69.70;;;20.28;51.34;100613.63;5052519;28;20259;-56
2022/09/14 03:11:23;;;;;;;3.37;2.10;;;17.50;69.70;;;20.23;52.04;100617.03;5052120;28;20190;-56
2022/09/14 03:13:50;;;;;;;3.27;1.90;;;17.50;69.70;;;20.20;51.67;100612.16;5052054;28;20267;-58
2022/09/14 03:16:18;;;;;;;3.40;1.87;;;17.40;69.80;;;20.19;51.58;100604.34;5052661;28;20194;-57
2022/09/14 03:18:45;;;;;;;5.03;2.33;;;17.40;69.90;;;20.18;52.14;100614.22;5052553;28;20194;-56
2022/09/14 03:21:16;;;;;;;5.80;1.83;;;17.40;70.00;;;20.13;51.73;100606.09;5051992;28;20519;-54
2022/09/14 03:23:46;;;;;;;5.30;2.37;;;17.30;69.90;;;20.09;51.68;100602.31;5052248;28;20221;-55
2022/09/14 03:26:18;;;;;;;6.87;2.40;;;17.30;70.00;;;20.05;51.83;100597.69;5052211;28;20627;-56
2022/09/14 03:28:50;;;;;;;3.70;2.20;;;17.30;70.20;;;20.04;52.06;100601.41;5052178;28;20190;-55
2022/09/14 03:31:18;;;;;;;4.40;2.37;;;17.30;70.50;;;20.04;52.06;100604.88;5051916;28;20197;-54
2022/09/14 03:33:50;;;;;;;5.30;2.00;;;17.20;70.50;;;20.04;52.40;100602.22;5052348;28;20210;-56
2022/09/14 03:36:20;;;;;;;3.83;2.30;;;17.20;70.60;;;20.03;52.40;100600.59;5051491;28;20240;-56
2022/09/14 03:38:51;;;;;;;4.73;2.17;;;17.20;70.60;;;20.02;52.67;100598.97;5052326;28;20197;-57
2022/09/14 03:41:19;;;;;;;3.43;2.20;;;17.20;70.60;;;20.01;52.64;100597.38;5051885;28;20194;-57
2022/09/14 03:43:47;;;;;;;7.80;2.53;;;17.20;70.70;;;20.03;52.61;100607.81;5051790;28;20748;-56
2022/09/14 03:46:19;;;;;;;3.50;2.50;;;17.20;70.90;;;20.06;52.68;100608.13;5052088;28;20729;-57
2022/09/14 03:48:47;;;;;;;5.23;2.67;;;17.20;71.10;;;20.10;52.52;100609.28;5052095;28;20187;-57
2022/09/14 03:51:15;;;;;;;2.67;2.33;;;17.30;71.10;;;20.12;52.67;100609.03;5051535;28;20186;-55
2022/09/14 03:53:44;;;;;;;2.70;1.90;;;17.30;70.80;;;20.12;52.31;100604.50;5051850;28;20214;-57
2022/09/14 03:56:16;;;;;;;4.40;2.63;;;17.30;70.70;;;20.14;52.16;100599.72;5051448;28;20190;-57
2022/09/14 03:58:46;;;;;;;3.83;2.30;;;17.30;70.60;;;20.14;52.06;100602.41;5051565;28;20204;-60
2022/09/14 04:01:16;;;;;;;7.90;3.03;;;17.30;70.50;;;20.12;52.17;100601.00;5051101;28;20213;-57
2022/09/14 04:03:45;;;;;;;3.47;2.43;;;17.30;70.40;;;20.11;52.62;100597.53;5051533;28;20701;-62
2022/09/14 04:06:13;;;;;;;4.33;2.67;;;17.30;70.60;;;20.12;52.42;100593.81;5051394;28;20214;-55
2022/09/14 04:08:45;;;;;;;2.90;2.40;;;17.30;71.10;;;20.15;52.69;100597.88;5051137;28;20607;-56
2022/09/14 04:11:15;;;;;;;2.77;2.00;;;17.30;70.70;;;20.13;51.99;100592.75;5050817;28;20237;-58
2022/09/14 04:13:43;;;;;;;4.70;2.33;;;17.30;71.10;;;20.14;52.68;100586.34;5051102;28;20259;-55
2022/09/14 04:16:11;;;;;;;8.03;2.63;;;17.40;70.60;;;20.12;52.29;100576.97;5051245;28;20190;-57
2022/09/14 04:18:38;;;;;;;7.67;3.90;;;17.30;70.40;;;20.10;52.40;100579.88;5051059;28;20220;-57
2022/09/14 04:21:13;;;;;;;4.60;2.93;;;17.30;70.60;;;20.06;52.10;100580.59;5050817;28;20213;-55
2022/09/14 04:23:40;;;;;;;8.13;3.57;;;17.30;70.60;;;20.06;52.45;100580.59;5051269;28;20209;-57
2022/09/14 04:26:31;;;;;;;4.03;2.67;;;17.30;71.10;;;20.04;52.67;100572.81;5051216;28;20570;-57
2022/09/14 04:28:59;;;;;;;4.50;2.40;;;17.30;70.90;;;20.05;52.52;100571.78;5051176;28;20190;-58
2022/09/14 04:31:26;;;;;;;3.27;2.80;;;17.30;71.10;;;20.04;52.83;100564.00;5050644;28;20714;-58
2022/09/14 04:33:55;;;;;;;5.63;2.60;;;17.30;70.80;;;19.99;52.55;100578.06;5050874;28;20221;-59
2022/09/14 04:36:28;;;;;;;4.30;2.10;;;17.30;70.80;;;19.98;53.13;100575.63;5051181;28;20285;-56
2022/09/14 04:38:58;;;;;;;5.80;2.57;;;17.30;70.90;;;20.01;53.01;100575.97;5050799;28;20704;-56
2022/09/14 04:41:27;;;;;;;6.03;2.83;;;17.30;71.50;;;20.06;52.89;100576.03;5050664;28;20194;-57
2022/09/14 04:43:56;;;;;;;5.33;2.80;;;17.30;71.10;;;20.07;53.08;100571.53;5050742;28;20204;-57
2022/09/14 04:46:28;;;;;;;6.47;2.83;;;17.30;71.20;;;20.09;53.26;100578.25;5050368;28;20768;-57
2022/09/14 04:48:56;;;;;;;5.07;2.97;;;17.30;71.50;;;20.16;52.87;100573.56;5050158;28;20182;-55
2022/09/14 04:51:26;;;;;;;5.20;2.37;;;17.30;71.40;;;20.23;53.14;100568.09;5050634;28;20202;-58
2022/09/14 04:53:57;;;;;;;5.47;2.60;;;17.40;71.40;;;20.27;53.27;100563.91;5050811;28;20600;-55
2022/09/14 04:56:27;;;;;;;6.43;2.53;;;17.50;71.30;;;20.29;52.83;100571.66;5050580;28;20208;-56
2022/09/14 04:58:58;;;;;;;6.03;2.63;;;17.50;70.60;;;20.25;52.80;100571.34;5050443;28;20252;-58
2022/09/14 05:01:29;;;;;;;7.20;2.60;;;17.50;70.60;;;20.23;52.60;100579.59;5050409;28;20278;-55
2022/09/14 05:03:57;;;;;;;3.77;2.57;;;17.50;70.20;;;20.22;52.83;100572.66;5050694;28;20198;-58
2022/09/14 05:06:27;;;;;;;4.97;2.70;;;17.50;70.30;;;20.22;52.59;100583.34;5050732;28;20276;-59
2022/09/14 05:08:56;;;;;;;5.90;2.70;;;17.50;70.40;;;20.22;52.47;100583.34;5051087;28;20663;-58
2022/09/14 05:11:26;;;;;;;3.93;2.73;;;17.40;70.60;;;20.27;52.42;100585.28;5049933;28;20197;-58
2022/09/14 05:13:57;;;;;;;6.77;3.00;;;17.40;70.90;;;20.29;52.43;100582.34;5050249;28;20662;-57
2022/09/14 05:16:27;;;;;;;3.90;2.60;;;17.40;70.90;;;20.33;52.59;100578.13;5050388;28;20232;-58
2022/09/14 05:18:57;;;;;;;5.67;2.60;;;17.40;72.00;;;20.35;52.23;100578.72;5050402;28;20186;-58
2022/09/14 05:21:25;;;;;;;4.77;2.70;;;17.40;71.20;;;20.38;52.35;100580.91;5050431;28;20201;-55
2022/09/14 05:23:54;;;;;;;5.33;2.97;;;17.40;71.20;;;20.42;52.37;100571.34;5050267;28;20263;-57
2022/09/14 05:26:22;;;;;;;7.20;2.97;;;17.50;71.20;;;20.47;52.45;100585.59;5049841;28;20263;-57
2022/09/14 05:28:51;;;;;;;3.40;2.27;;;17.50;71.10;;;20.51;52.49;100578.72;5050176;28;20201;-58
2022/09/14 05:31:22;;;;;;;7.57;3.03;;;17.60;71.20;;;20.57;51.92;100579.59;5049688;28;20182;-57
2022/09/14 05:33:51;;;;;;;5.73;2.57;;;17.60;71.00;;;20.60;52.19;100579.13;5049686;28;20206;-57
2022/09/14 05:36:19;;;;;;;5.27;2.87;;;17.60;70.70;;;20.66;51.64;100583.47;5050443;28;20190;-57
2022/09/14 05:38:47;;;;;;;5.10;2.93;;;17.70;70.50;;;20.66;51.49;100583.47;5050190;28;20592;-57
2022/09/14 05:41:15;;;;;;;5.90;2.90;;;17.70;70.30;;;20.65;51.45;100588.03;5049921;28;20255;-58
2022/09/14 05:43:43;;;;;;;8.60;2.90;;;17.70;70.30;;;20.64;51.47;100570.38;5049592;28;20210;-58
2022/09/14 05:46:13;;;;;;;5.27;3.27;;;17.70;70.60;;;20.68;51.80;100570.69;5049675;28;20213;-55
2022/09/14 05:48:42;;;;;;;4.87;2.70;;;17.70;70.50;;;20.72;51.27;100574.50;5050530;28;20241;-58
2022/09/14 05:51:12;;;;;;;7.93;2.70;;;17.70;70.20;;;20.74;51.15;100564.34;5050600;28;20186;-61
2022/09/14 05:53:40;;;;;;;5.87;2.77;;;17.70;70.30;;;20.79;51.51;100567.13;5053250;28;20206;-59
2022/09/14 05:56:11;;;;;;;5.57;3.53;;;17.80;70.40;;;20.84;51.52;100564.50;5051410;28;20194;-60
2022/09/14 05:58:40;;;;;;;4.53;2.43;;;17.80;70.40;;;20.91;51.61;100570.50;5051680;28;20220;-56
2022/09/14 06:01:11;;;;;;;6.90;2.87;;;17.90;70.00;;;20.94;50.96;100567.34;5058155;28;20632;-57
2022/09/14 06:03:39;;;;;;;9.90;2.77;;;17.90;69.60;;;20.94;50.71;100564.66;5054094;28;20218;-56
2022/09/14 06:06:10;;;;;;;4.03;2.80;;;17.90;69.30;;;20.94;51.10;100564.66;5053709;28;20217;-58
2022/09/14 06:08:39;;;;;;;4.67;2.27;;;18.00;69.50;;;20.97;50.47;100561.47;5053791;28;20243;-56
2022/09/14 06:11:09;;;;;;;4.67;2.50;;;18.00;69.30;;;20.98;50.98;100565.78;5053529;28;20247;-56
2022/09/14 06:13:37;;;;;;;5.37;2.63;;;18.00;69.40;;;21.06;50.83;100562.69;5053582;28;20267;-56
2022/09/14 06:16:07;;;;;;;5.13;2.87;;;18.10;69.50;;;21.12;50.74;100564.41;5053601;28;20240;-57
2022/09/14 06:18:36;;;;;;;6.80;2.67;;;18.10;69.50;;;21.21;50.33;100560.22;5053269;28;20215;-58
2022/09/14 06:21:05;;;;;;;5.80;2.80;;;18.20;69.20;;;21.28;50.37;100560.03;5053145;28;20194;-60
2022/09/14 06:23:35;;;;;;;5.13;2.13;;;18.30;68.90;;;21.32;50.17;100561.19;5053540;28;20221;-58
2022/09/14 06:26:04;;;;;;;4.87;2.43;;;18.30;68.40;;;21.33;50.33;100554.75;5053769;28;20213;-57
2022/09/14 06:28:33;;;;;;;5.73;3.00;;;18.30;68.30;;;21.35;49.63;100552.63;5053848;28;20659;-59
2022/09/14 06:31:03;;;;;;;7.03;2.73;;;18.30;68.00;;;21.34;49.48;100551.84;5054111;28;20192;-55
2022/09/14 06:33:30;;;;;;;8.20;3.00;;;18.40;67.90;;;21.35;49.63;100552.63;5054022;28;20194;-58
2022/09/14 06:36:00;;;;;;;5.07;2.57;;;18.30;67.70;;;21.36;49.66;100547.03;5053517;28;20198;-57
2022/09/14 06:38:29;;;;;;;6.00;2.47;;;18.30;67.70;;;21.38;49.77;100547.59;5053393;28;20186;-58
2022/09/14 06:40:59;;;;;;;4.93;2.70;;;18.40;67.90;;;21.39;49.38;100546.53;5053119;28;20189;-57
2022/09/14 06:43:31;;;;;;;4.67;2.30;;;18.30;67.80;;;21.42;49.73;100540.66;5052594;28;20217;-60
2022/09/14 06:46:00;;;;;;;6.13;2.97;;;18.40;67.90;;;21.46;49.22;100546.34;5053321;28;20260;-59
2022/09/14 06:48:31;;;;;;;5.23;3.17;;;18.40;68.50;;;21.49;49.26;100545.81;5053390;28;20232;-58
2022/09/14 06:50:59;;;;;;;4.17;3.00;;;18.40;67.80;;;21.51;49.74;100543.72;5053185;28;20182;-57
2022/09/14 06:53:27;;;;;;;4.13;2.53;;;18.40;67.70;;;21.52;49.12;100543.47;5053019;28;20583;-58
2022/09/14 06:55:59;;;;;;;3.13;2.70;;;18.40;67.70;;;21.52;49.11;100546.16;5052448;28;20273;-55
2022/09/14 06:58:26;;;;;;;5.23;2.60;;;18.40;67.60;;;21.52;49.34;100553.38;5052987;28;20177;-58
2022/09/14 07:00:53;;;;;;;3.37;2.00;;;18.50;67.60;;;21.52;49.32;100556.84;5050708;28;20717;-58
2022/09/14 07:03:20;;;;;;;8.53;3.17;;;18.50;67.60;;;21.52;49.11;100558.72;5052518;28;20210;-56
2022/09/14 07:05:48;;;;;;;8.10;3.20;;;18.50;67.40;;;21.50;48.79;100558.97;5052767;28;20637;-57
2022/09/14 07:08:15;;;;;;;4.83;2.30;;;18.40;67.50;;;21.49;49.09;100568.06;5052442;28;20627;-57
2022/09/14 07:10:43;;;;;;;6.97;2.60;;;18.50;67.60;;;21.51;49.20;100571.31;5052212;28;20228;-58
2022/09/14 07:13:11;;;;;;;6.20;2.87;;;18.40;67.60;;;21.55;49.69;100572.44;5052677;28;20221;-58
2022/09/14 07:15:39;;;;;;;8.13;3.40;;;18.50;67.80;;;21.62;49.57;100572.25;5052627;28;20194;-54
2022/09/14 07:18:06;;;;;;;6.73;3.37;;;18.50;67.90;;;21.70;49.22;100574.50;5052400;28;20182;-59
2022/09/14 07:20:33;;;;;;;6.23;2.80;;;18.60;68.00;;;21.81;49.12;100581.56;5052160;28;20186;-58
2022/09/14 07:23:00;;;;;;;7.47;2.83;;;18.60;68.00;;;21.94;48.78;100580.41;5052433;28;20210;-57
2022/09/14 07:25:28;;;;;;;3.93;2.70;;;18.70;67.80;;;22.01;48.98;100583.69;5051980;28;20691;-58
2022/09/14 07:27:55;;;;;;;7.80;3.40;;;18.80;67.70;;;22.12;48.97;100583.53;5052557;28;20255;-58
2022/09/14 07:30:25;;;;;;;8.83;3.23;;;18.90;67.50;;;22.25;48.57;100585.78;5051108;28;20190;-57
2022/09/14 07:32:52;;;;;;;6.33;2.77;;;19.00;67.40;;;22.34;48.44;100580.78;5051777;28;20226;-58
2022/09/14 07:35:20;;;;;;;5.87;3.10;;;19.10;67.20;;;22.43;48.24;100579.22;5051262;28;20713;-58
2022/09/14 07:37:47;;;;;;;5.33;3.40;;;19.20;66.90;;;22.48;48.08;100581.97;5051334;28;20268;-58
2022/09/14 07:40:15;;;;;;;5.87;3.23;;;19.20;66.50;;;22.53;47.60;100576.63;5051514;28;20597;-55
2022/09/14 07:42:50;;;;;;;5.67;3.10;;;19.20;66.30;;;22.63;47.62;100565.19;5051229;28;20225;-55
2022/09/14 07:45:25;;;;;;;4.27;3.30;;;19.30;66.40;;;22.83;47.13;100560.75;5050732;28;20513;-56
2022/09/14 07:47:52;;;;;;;5.77;3.13;;;19.40;66.40;;;23.17;46.90;100552.34;5051822;28;20194;-58
2022/09/14 07:50:19;;;;;;;5.83;3.20;;;19.50;66.20;;;23.48;46.37;100554.13;5052033;28;20197;-56
2022/09/14 07:52:49;;;;;;;4.07;2.53;;;19.70;65.80;;;23.76;45.70;100552.84;5051595;28;20229;-58
2022/09/14 07:55:17;;;;;;;6.03;3.30;;;19.90;65.60;;;24.20;45.19;100554.81;5051404;28;20194;-56
2022/09/14 07:57:45;;;;;;;5.50;3.33;;;20.20;65.10;;;24.75;44.46;100558.53;5050812;28;20198;-59
2022/09/14 08:00:24;;;;;;;8.03;2.67;;;20.50;64.40;;;25.02;43.11;100569.00;5051621;28;20247;-59
2022/09/14 08:02:53;;;;;;;7.67;3.00;;;20.80;63.00;;;24.99;42.60;100562.28;5050699;28;20222;-58
2022/09/14 08:05:22;;;;;;;10.50;3.80;;;21.00;61.70;;;24.84;42.64;100556.94;5051017;28;20194;-56
2022/09/14 08:07:53;;;;;;;5.97;3.33;;;21.10;60.80;;;24.70;42.89;100553.97;5051068;28;20198;-57
2022/09/14 08:10:22;;;;;;;7.27;3.00;;;21.20;60.90;;;24.74;43.18;100551.56;5050429;28;20209;-60
2022/09/14 08:12:51;;;;;;;3.90;2.53;;;21.20;60.90;;;24.93;42.95;100558.00;5051363;28;20232;-58
2022/09/14 08:15:32;;;;;;;7.03;2.70;;;21.20;61.20;;;25.11;43.12;100564.66;5051542;28;20198;-56
2022/09/14 08:18:01;;;;;;;5.90;2.63;;;21.40;60.80;;;25.16;42.44;100549.31;5052176;28;20186;-57
2022/09/14 08:20:28;;;;;;;7.33;2.93;;;21.40;60.10;;;25.17;41.87;100560.88;5051625;28;20190;-56
2022/09/14 08:22:57;;;;;;;4.37;2.43;;;21.50;59.90;;;25.11;42.38;100570.88;5038841;28;20221;-56
2022/09/14 08:25:57;;;;;;;8.67;2.47;;;21.50;59.70;;;25.01;42.60;100552.03;5052351;28;20202;-60
2022/09/14 08:28:27;;;;;;;5.73;2.40;;;21.60;59.90;;;25.04;42.83;100546.09;5045806;28;20663;-58
2022/09/14 08:31:19;;;;;;;5.40;2.73;;;21.60;60.00;;;25.06;42.91;100543.94;5034643;28;20233;-58
2022/09/14 08:33:53;;;;;;;4.13;2.33;;;21.60;60.00;;;25.12;42.34;100542.84;5067487;28;20197;-59
2022/09/14 08:36:28;;;;;;;4.33;2.60;;;21.60;60.00;;;25.18;42.68;100540.94;5034900;28;20202;-58
2022/09/14 08:39:00;;;;;;;7.43;2.73;;;21.70;60.20;;;25.31;42.15;100540.34;5035230;28;20304;-60
2022/09/14 08:41:36;;;;;;;4.30;2.23;;;21.70;59.90;;;25.41;42.03;100543.78;5051107;28;20208;-60
2022/09/14 08:44:19;;;;;;;4.77;2.10;;;21.80;59.90;;;25.43;42.39;100530.06;5035517;28;20193;-60
2022/09/14 08:46:57;;;;;;;5.90;2.03;;;21.80;59.50;;;25.33;42.38;100538.19;5051458;28;20227;-60
2022/09/14 08:49:55;;;;;;;5.90;1.93;;;21.80;59.30;;;25.04;42.86;100535.34;5035000;28;20831;-60
2022/09/14 08:52:30;;;;;;;3.20;2.30;;;21.80;59.10;;;24.91;42.51;100530.53;5046182;28;20671;-58
2022/09/14 08:55:15;;;;;;;3.60;2.00;;;21.70;59.20;;;24.83;43.06;100539.16;5049634;28;20673;-60
2022/09/14 08:57:55;;;;;;;4.83;3.33;;;21.70;59.20;;;24.72;42.89;100542.94;5035145;28;20384;-58
2022/09/14 09:01:10;;;;;;;5.27;2.03;;;21.60;59.50;;;24.72;43.41;100537.56;5051848;28;20181;-60
2022/09/14 09:04:35;;;;;;;5.93;2.80;;;21.60;59.60;;;24.79;43.08;100530.03;5063812;28;20208;-59
2022/09/14 09:07:13;;;;;;;4.60;2.37;;;21.50;59.50;;;25.00;42.67;100520.00;5049590;28;20205;-57
2022/09/14 09:09:45;;;;;;;4.83;1.97;;;21.60;59.40;;;25.14;41.67;100524.53;5049638;28;20174;-57
2022/09/14 09:12:17;;;;;;;4.63;2.27;;;21.70;58.50;;;25.30;41.39;100517.16;5050720;28;20210;-57
2022/09/14 09:14:51;;;;;;;3.63;2.63;;;21.70;58.10;;;25.47;41.06;100518.47;5051024;28;20627;-56
2022/09/14 09:17:29;;;;;;;3.17;1.60;;;21.80;58.10;;;25.70;40.59;100529.66;5052656;28;20186;-56
2022/09/14 09:20:08;;;;;;;3.87;1.40;;;22.00;56.80;;;25.90;39.50;100516.03;5051784;28;20209;-56
2022/09/14 09:22:42;;;;;;;3.93;2.13;;;22.10;55.60;;;26.01;39.20;100517.56;5050369;28;20266;-56
2022/09/14 09:25:22;;;;;;;3.80;1.40;;;22.20;55.70;;;26.17;38.46;100513.69;5070613;28;20182;-58
2022/09/14 09:27:49;;;;;;;3.83;2.10;;;22.40;53.40;;;27.03;36.66;100513.63;5049096;28;20589;-56
2022/09/14 09:30:17;;;;;;;14.90;8.23;;;22.60;53.20;;;27.73;35.66;100517.31;5049345;28;20198;-55
2022/09/14 09:32:44;;;;;;;5.47;1.83;;;23.00;53.80;;;28.12;34.53;100517.81;5049058;28;20221;-54
2022/09/14 09:35:22;;;;;;;3.13;1.60;;;23.40;52.10;;;29.16;33.05;100514.53;5050892;28;20186;-58
2022/09/14 09:37:49;;;;;;;6.57;2.60;;;23.80;50.60;;;30.13;31.83;100503.94;5053534;28;20182;-57
2022/09/14 09:40:27;;;;;;;2.80;1.50;;;24.40;50.10;;;31.64;29.27;100505.16;5053233;28;20719;-56
2022/09/14 09:43:09;;;;;;;4.97;1.83;;;25.00;48.30;;;33.19;27.73;100498.16;5053558;28;20213;-59
2022/09/14 09:45:49;;;;;;;6.07;2.43;;;25.90;46.80;;;34.43;25.82;100492.59;5053747;28;20178;-55
2022/09/14 09:48:20;;;;;;;4.07;2.03;;;26.80;45.00;;;35.71;24.08;100487.25;5053467;28;20177;-58
2022/09/14 09:51:08;;;;;;;2.60;1.63;;;27.70;43.80;;;36.84;23.80;100493.00;5052965;28;20236;-58
2022/09/14 09:53:45;;;;;;;4.38;2.13;;;28.60;41.50;;;36.61;22.83;100489.31;5053141;28;20269;-55
2022/09/14 09:56:19;;;;;;;3.20;1.77;;;29.40;38.50;;;35.62;22.29;100483.88;5053028;28;20272;-56
2022/09/14 09:58:50;;;;;;;4.67;2.83;;;29.70;34.90;;;34.78;23.70;100489.44;5053221;28;20178;-57
2022/09/14 10:01:21;;;;;;;2.77;1.90;;;29.70;35.80;;;34.31;24.37;100484.34;5052585;28;20920;-57
2022/09/14 10:04:17;;;;;;;7.23;2.03;;;29.70;35.90;;;33.80;25.40;100482.16;5053043;28;20300;-57
2022/09/14 10:06:49;;;;;;;3.73;1.50;;;29.50;36.20;;;33.56;25.60;100488.31;5045399;28;20268;-58
2022/09/14 10:09:20;;;;;;;3.77;1.60;;;29.30;36.20;;;33.11;25.99;100485.38;5045607;28;20194;-57
2022/09/14 10:11:58;;;;;;;5.50;1.77;;;29.00;36.60;;;32.56;26.07;100487.41;5045628;28;20244;-58
2022/09/14 10:14:32;;;;;;;4.10;1.60;;;28.70;36.40;;;31.97;26.65;100486.44;5046049;28;20662;-54
2022/09/14 10:17:16;;;;;;;3.13;1.50;;;28.30;36.70;;;31.16;27.60;100493.56;5048828;28;20193;-58
2022/09/14 10:19:47;;;;;;;3.43;1.90;;;27.90;36.50;;;30.59;28.00;100479.94;5048073;28;20223;-57
2022/09/14 10:22:26;;;;;;;4.93;1.70;;;27.40;37.60;;;30.05;28.58;100469.38;5044206;28;20589;-58
2022/09/14 10:24:57;;;;;;;3.23;1.73;;;26.90;38.00;;;29.69;29.01;100471.34;5050425;28;20288;-56
2022/09/14 10:27:39;;;;;;;3.37;1.50;;;26.60;39.20;;;29.36;29.56;100471.53;5048917;28;20209;-57
2022/09/14 10:30:16;;;;;;;3.53;2.03;;;26.20;39.60;;;29.07;30.24;100468.38;5046419;28;20661;-58
2022/09/14 10:32:53;;;;;;;4.20;2.60;;;25.90;40.20;;;28.77;30.12;100471.69;5047467;28;20217;-57
2022/09/14 10:35:30;;;;;;;4.63;2.00;;;25.60;40.80;;;28.51;30.74;100473.25;5050555;28;20745;-55